Coral Gables, Florida
Current Conditions -  °F | °C
As of 3:53 PM on Friday 24 Oct 2014 (Local Time) from KMIA Reporting Station
Broken Clouds Broken Clouds  
Wind Chill: 78°   Ceiling: 3500
Heat Index: 80°   Visibility: 10mi
Dew Point: 70°   Wind: 12mph
Humidity: 76%   Direction: 40°NE
Pressure: 29.81"   Gusts: 21mph
Location:  25.75°N, 80.26°W
Report Text: KMIA 241953Z 04010G18KT 10SM FEW025 BKN035 BKN042 26/21 A2981 RMK AO2 SLP094 T02560211
Loading
Personal Weather Stations






























Interactive Weather Map
Tropical Storm Tracking
New forecast layout! Learn more

10-Day Weather Forecast

Advertisements
Track Severe Weather on mobile